Time;durP1;ratioP1;P1;durP2;ratioP2;P2;SDS_P1;SDS_P2;PMS_P1;PMS_P2;Temp;Humidity;BMP_temperature;BMP_pressure;BME280_temperature;BME280_humidity;BME280_pressure;Samples;Min_cycle;Max_cycle;Signal;HPM_P1;HPM_P2
2023/07/29 00:02:15;;;;;;;6.40;5.10;;;;;;;15.77;100.00;97328.08;106991;1273;22546;-80
2023/07/29 00:04:43;;;;;;;9.40;5.20;;;;;;;15.80;100.00;97333.98;107022;1273;22674;-81
2023/07/29 00:07:11;;;;;;;8.60;5.20;;;;;;;15.85;100.00;97334.13;106985;1273;24259;-79
2023/07/29 00:09:39;;;;;;;10.80;5.30;;;;;;;15.87;100.00;97335.52;106951;1273;22525;-80
2023/07/29 00:12:07;;;;;;;12.40;5.60;;;;;;;15.89;100.00;97330.76;107023;1273;22534;-79
2023/07/29 00:14:35;;;;;;;8.20;4.60;;;;;;;15.92;100.00;97329.98;106953;1273;25471;-80
2023/07/29 00:17:04;;;;;;;8.20;4.80;;;;;;;15.96;100.00;97325.48;106974;1273;22524;-80
2023/07/29 00:19:33;;;;;;;7.40;5.40;;;;;;;15.96;100.00;97325.18;107000;1273;23018;-81
2023/07/29 00:22:01;;;;;;;11.10;7.80;;;;;;;15.91;100.00;97327.77;107203;1273;24263;-80
2023/07/29 00:24:29;;;;;;;6.40;5.20;;;;;;;15.90;100.00;97325.56;106903;1273;24455;-79
2023/07/29 00:26:57;;;;;;;7.00;5.10;;;;;;;15.89;100.00;97322.13;107063;1273;202205;-79
2023/07/29 00:29:25;;;;;;;6.60;4.40;;;;;;;15.88;100.00;97322.58;107005;1262;22641;-80
2023/07/29 00:31:53;;;;;;;12.10;5.20;;;;;;;15.87;100.00;97321.06;107025;1273;22650;-80
2023/07/29 00:34:21;;;;;;;9.30;7.20;;;;;;;15.87;100.00;97320.92;107008;1273;22616;-79
2023/07/29 00:36:50;;;;;;;9.50;6.30;;;;;;;15.80;100.00;97324.60;106846;1273;22696;-80
2023/07/29 00:39:19;;;;;;;8.50;7.20;;;;;;;15.64;100.00;97323.43;107033;1273;22795;-81
2023/07/29 00:41:47;;;;;;;7.90;6.20;;;;;;;15.51;100.00;97320.34;107348;1249;25600;-80
2023/07/29 00:44:15;;;;;;;11.10;7.00;;;;;;;15.42;100.00;97322.74;107462;1273;22754;-80
2023/07/29 00:46:46;;;;;;;10.90;5.50;;;;;;;15.41;100.00;97322.41;107352;1273;22638;-80
2023/07/29 00:49:14;;;;;;;6.90;5.40;;;;;;;15.40;100.00;97326.88;107378;1273;22982;-80
2023/07/29 00:51:42;;;;;;;9.80;4.80;;;;;;;15.44;100.00;97322.34;107042;1273;22734;-79
2023/07/29 00:54:10;;;;;;;7.00;4.90;;;;;;;15.50;100.00;97319.46;106975;1273;24224;-79
2023/07/29 00:56:40;;;;;;;7.30;5.40;;;;;;;15.56;100.00;97318.46;106941;1273;22651;-79
2023/07/29 00:59:08;;;;;;;7.00;5.00;;;;;;;15.57;100.00;97316.95;107007;1273;25392;-79
2023/07/29 01:01:38;;;;;;;7.10;5.60;;;;;;;15.48;100.00;97319.81;106981;1273;24059;-79
2023/07/29 01:04:06;;;;;;;9.40;4.90;;;;;;;15.32;100.00;97322.77;106966;1273;22660;-79
2023/07/29 01:07:13;;;;;;;6.60;4.60;;;;;;;15.21;100.00;97320.52;107012;1273;22659;-79
2023/07/29 01:10:19;;;;;;;8.60;5.20;;;;;;;15.15;100.00;97321.17;106436;1280;22657;-80
2023/07/29 01:13:10;;;;;;;7.50;5.40;;;;;;;15.18;100.00;97322.61;106084;1284;23909;-79
2023/07/29 01:15:47;;;;;;;8.60;5.10;;;;;;;15.13;100.00;97326.08;106105;1284;22629;-79
2023/07/29 01:18:22;;;;;;;7.40;5.20;;;;;;;15.06;100.00;97323.91;106105;1283;22686;-80
2023/07/29 01:20:54;;;;;;;7.00;5.50;;;;;;;15.00;100.00;97318.79;106444;1283;24414;-80
2023/07/29 01:23:26;;;;;;;8.90;5.20;;;;;;;15.01;100.00;97314.71;106471;1283;23633;-80
2023/07/29 01:25:54;;;;;;;10.40;5.70;;;;;;;15.01;100.00;97322.00;106582;1284;22576;-79
2023/07/29 01:28:23;;;;;;;6.50;4.70;;;;;;;14.97;100.00;97323.05;106467;1284;23621;-80
2023/07/29 01:31:02;;;;;;;7.40;5.30;;;;;;;14.91;100.00;97321.38;106104;1284;22538;-79
2023/07/29 01:33:37;;;;;;;7.30;4.70;;;;;;;14.92;100.00;97316.23;106379;1284;24082;-80
2023/07/29 01:36:13;;;;;;;8.60;5.50;;;;;;;14.93;100.00;97318.82;106374;1284;25269;-80
2023/07/29 01:38:44;;;;;;;11.10;5.60;;;;;;;14.95;100.00;97318.86;106450;1283;22578;-79
2023/07/29 01:41:14;;;;;;;7.90;5.60;;;;;;;14.97;100.00;97321.02;106464;1284;23149;-79
2023/07/29 01:43:43;;;;;;;7.10;4.90;;;;;;;15.03;100.00;97318.48;106355;1280;22531;-79
2023/07/29 01:46:15;;;;;;;8.10;5.00;;;;;;;15.03;100.00;97323.30;106958;1273;22536;-80
2023/07/29 01:48:44;;;;;;;8.50;5.10;;;;;;;15.04;100.00;97317.30;107249;1273;25472;-78
2023/07/29 01:51:14;;;;;;;9.00;5.00;;;;;;;15.07;100.00;97315.17;107073;1250;22522;-79
2023/07/29 01:53:42;;;;;;;8.30;5.30;;;;;;;15.15;100.00;97317.14;106999;1273;22662;-79
2023/07/29 01:56:10;;;;;;;7.60;5.80;;;;;;;15.23;100.00;97314.30;106936;1273;25325;-80
2023/07/29 01:58:42;;;;;;;10.00;4.70;;;;;;;15.30;100.00;97308.65;106968;1273;22635;-79
2023/07/29 02:01:10;;;;;;;9.90;5.40;;;;;;;15.39;100.00;97311.55;107289;1273;22623;-80
2023/07/29 02:03:38;;;;;;;8.40;5.20;;;;;;;15.41;100.00;97302.40;106878;1273;25393;-80
2023/07/29 02:06:06;;;;;;;8.30;4.80;;;;;;;15.45;100.00;97301.17;106928;1273;24229;-79
2023/07/29 02:08:34;;;;;;;6.50;5.20;;;;;;;15.51;100.00;97309.95;106942;1273;22623;-79
2023/07/29 02:11:02;;;;;;;7.60;5.10;;;;;;;15.58;100.00;97307.60;106901;1273;22527;-79
2023/07/29 02:13:31;;;;;;;8.10;4.90;;;;;;;15.61;100.00;97311.56;107020;1273;22639;-79
2023/07/29 02:15:59;;;;;;;6.80;5.10;;;;;;;15.65;100.00;97315.96;107027;1273;25545;-79
2023/07/29 02:18:27;;;;;;;7.20;5.10;;;;;;;15.63;100.00;97316.13;106935;1273;22516;-79
2023/07/29 02:20:55;;;;;;;8.10;5.50;;;;;;;15.59;100.00;97318.58;107383;1273;24433;-79
2023/07/29 02:23:24;;;;;;;10.80;5.70;;;;;;;15.60;100.00;97321.63;107246;1273;22524;-79
2023/07/29 02:25:52;;;;;;;6.60;5.20;;;;;;;15.60;100.00;97315.55;107373;1273;24183;-78
2023/07/29 02:28:20;;;;;;;7.90;5.50;;;;;;;15.59;100.00;97323.23;107223;1252;22517;-79
2023/07/29 02:31:10;;;;;;;7.50;5.10;;;;;;;15.60;100.00;97327.98;107307;1273;24235;-80
2023/07/29 02:33:40;;;;;;;6.60;5.20;;;;;;;15.60;100.00;97334.41;107273;1273;25328;-80
2023/07/29 02:36:08;;;;;;;12.40;5.40;;;;;;;15.62;100.00;97338.68;107330;1273;22521;-80
2023/07/29 02:38:36;;;;;;;10.20;5.50;;;;;;;15.65;100.00;97342.72;107220;1273;23115;-80
2023/07/29 02:41:04;;;;;;;8.20;5.00;;;;;;;15.68;100.00;97342.50;107244;1273;22553;-80
2023/07/29 02:43:32;;;;;;;7.40;5.80;;;;;;;15.71;100.00;97341.41;107246;1273;25336;-80
2023/07/29 02:46:00;;;;;;;11.50;5.90;;;;;;;15.78;100.00;97342.31;107281;1273;25525;-80
2023/07/29 02:48:29;;;;;;;11.00;5.90;;;;;;;15.85;100.00;97344.20;107294;1273;24218;-80
2023/07/29 02:50:57;;;;;;;10.30;6.30;;;;;;;15.86;100.00;97342.08;107268;1273;22609;-79
2023/07/29 02:53:25;;;;;;;12.00;8.10;;;;;;;15.82;100.00;97348.24;107306;1273;22647;-80
2023/07/29 02:55:54;;;;;;;9.60;8.60;;;;;;;15.80;100.00;97345.31;107255;1273;25352;-79
2023/07/29 02:58:22;;;;;;;9.90;8.90;;;;;;;15.86;100.00;97344.65;107256;1273;22559;-80
2023/07/29 03:00:50;;;;;;;9.50;8.20;;;;;;;15.93;100.00;97345.37;107223;1273;25200;-80
2023/07/29 03:03:19;;;;;;;8.80;8.00;;;;;;;16.01;100.00;97347.05;107270;1273;22597;-79
2023/07/29 03:05:48;;;;;;;12.40;7.10;;;;;;;16.08;100.00;97345.21;107206;1273;25243;-79
2023/07/29 03:08:16;;;;;;;8.10;7.10;;;;;;;16.12;100.00;97345.80;107198;1273;24238;-79
2023/07/29 03:10:44;;;;;;;12.80;8.40;;;;;;;16.13;100.00;97342.19;107193;1273;24381;-79
2023/07/29 03:13:12;;;;;;;9.20;7.90;;;;;;;16.16;100.00;97343.02;107159;1273;23516;-79
2023/07/29 03:15:40;;;;;;;11.40;7.30;;;;;;;16.19;100.00;97342.40;107247;1273;25508;-78
2023/07/29 03:18:08;;;;;;;8.60;7.00;;;;;;;16.18;100.00;97345.88;106908;1273;25668;-79
2023/07/29 03:20:36;;;;;;;7.80;7.00;;;;;;;16.19;100.00;97350.39;107326;1273;22674;-79
2023/07/29 03:23:04;;;;;;;8.90;7.00;;;;;;;16.20;100.00;97351.42;107032;1250;22596;-78
2023/07/29 03:25:32;;;;;;;7.90;7.10;;;;;;;16.19;100.00;97356.46;106903;1273;22537;-78
2023/07/29 03:28:01;;;;;;;8.80;7.00;;;;;;;16.08;100.00;97355.55;107022;1273;25497;-80
2023/07/29 03:30:29;;;;;;;9.60;6.30;;;;;;;16.00;100.00;97355.19;106861;1273;23270;-79
2023/07/29 03:32:57;;;;;;;11.40;7.00;;;;;;;15.97;100.00;97355.66;107176;1273;24385;-79
2023/07/29 03:35:25;;;;;;;8.00;6.50;;;;;;;15.91;100.00;97357.90;107230;1273;22596;-80
2023/07/29 03:37:53;;;;;;;12.30;7.60;;;;;;;15.90;100.00;97355.62;106867;1273;22643;-79
2023/07/29 03:40:21;;;;;;;9.10;6.50;;;;;;;15.89;100.00;97355.80;106991;1273;25359;-79
2023/07/29 03:42:49;;;;;;;7.20;6.00;;;;;;;15.87;100.00;97355.38;107205;1273;22599;-79
2023/07/29 03:45:17;;;;;;;9.50;6.50;;;;;;;15.84;100.00;97352.89;106820;1273;23766;-79
2023/07/29 03:47:45;;;;;;;7.90;6.80;;;;;;;15.84;100.00;97353.35;106999;1252;22526;-79
2023/07/29 03:50:14;;;;;;;8.60;7.00;;;;;;;15.85;100.00;97356.02;107169;1273;24190;-79
2023/07/29 03:52:42;;;;;;;9.60;6.40;;;;;;;15.83;100.00;97356.44;107313;1273;22571;-79
2023/07/29 03:55:10;;;;;;;8.10;6.40;;;;;;;15.80;100.00;97362.02;107317;1273;22556;-79
2023/07/29 03:57:38;;;;;;;8.20;6.40;;;;;;;15.80;100.00;97366.67;107225;1273;22528;-80
2023/07/29 04:00:06;;;;;;;9.50;7.10;;;;;;;15.83;100.00;97371.23;107014;1273;24225;-79
2023/07/29 04:02:47;;;;;;;7.70;5.90;;;;;;;15.94;100.00;97363.86;107030;1273;22603;-79
2023/07/29 04:05:15;;;;;;;10.20;6.20;;;;;;;16.03;100.00;97362.77;106992;1273;22517;-80
2023/07/29 04:07:43;;;;;;;10.10;6.30;;;;;;;16.11;100.00;97359.91;107245;1273;22818;-81
2023/07/29 04:10:11;;;;;;;7.40;6.20;;;;;;;16.22;100.00;97359.33;106915;1273;25421;-79
2023/07/29 04:12:40;;;;;;;9.30;5.90;;;;;;;16.31;100.00;97359.88;107247;1273;22515;-80
2023/07/29 04:15:08;;;;;;;12.40;6.50;;;;;;;16.34;100.00;97361.67;107007;1273;22688;-79
2023/07/29 04:17:36;;;;;;;10.20;7.30;;;;;;;16.36;100.00;97363.04;107219;1273;22520;-79
2023/07/29 04:20:05;;;;;;;10.00;7.20;;;;;;;16.40;100.00;97360.24;107196;1273;22535;-79
2023/07/29 04:22:35;;;;;;;9.40;6.90;;;;;;;16.46;100.00;97356.52;106987;1273;22525;-79
2023/07/29 04:25:04;;;;;;;10.30;6.70;;;;;;;16.53;100.00;97355.77;106996;1273;22727;-79
2023/07/29 04:27:32;;;;;;;10.70;5.80;;;;;;;16.61;100.00;97362.09;107202;1273;22627;-79
2023/07/29 04:30:00;;;;;;;9.70;6.10;;;;;;;16.68;100.00;97365.39;107345;1273;22541;-79
2023/07/29 04:32:28;;;;;;;10.80;6.00;;;;;;;16.74;100.00;97366.55;107073;1273;22511;-79
2023/07/29 04:34:57;;;;;;;10.60;6.40;;;;;;;16.83;100.00;97366.32;107023;1273;24349;-80
2023/07/29 04:37:25;;;;;;;9.10;5.90;;;;;;;16.93;100.00;97369.81;107114;1273;23288;-79
2023/07/29 04:39:53;;;;;;;9.50;6.40;;;;;;;17.01;100.00;97371.95;107041;1273;25493;-81
2023/07/29 04:42:21;;;;;;;7.70;6.10;;;;;;;17.10;100.00;97371.14;107337;1273;24375;-80
2023/07/29 04:44:49;;;;;;;7.40;6.10;;;;;;;17.18;100.00;97372.25;107347;1273;25301;-80
2023/07/29 04:47:17;;;;;;;11.40;5.80;;;;;;;17.29;100.00;97371.64;107152;1273;22652;-80
2023/07/29 04:49:45;;;;;;;7.90;6.30;;;;;;;17.40;100.00;97372.59;107167;1273;22573;-79
2023/07/29 04:52:14;;;;;;;7.50;6.20;;;;;;;17.50;100.00;97373.13;106995;1273;22753;-79
2023/07/29 04:54:42;;;;;;;8.00;6.80;;;;;;;17.62;100.00;97376.24;107278;1273;22849;-79
2023/07/29 04:57:10;;;;;;;9.40;6.70;;;;;;;17.70;100.00;97373.14;107063;1273;24347;-79
2023/07/29 04:59:38;;;;;;;8.30;6.10;;;;;;;17.76;100.00;97371.86;107387;1273;24347;-81
2023/07/29 05:02:07;;;;;;;9.80;6.30;;;;;;;17.82;100.00;97371.92;107326;1273;22625;-79
2023/07/29 05:04:35;;;;;;;11.60;6.30;;;;;;;17.91;100.00;97373.42;107065;1273;22610;-79
2023/07/29 05:07:04;;;;;;;8.30;5.70;;;;;;;18.02;100.00;97377.23;107216;1273;25323;-79
2023/07/29 05:09:32;;;;;;;9.50;6.30;;;;;;;18.07;100.00;97377.41;107211;1273;22548;-79
2023/07/29 05:12:00;;;;;;;9.40;5.70;;;;;;;18.11;100.00;97377.48;107194;1273;23410;-80
2023/07/29 05:14:28;;;;;;;8.10;5.80;;;;;;;18.16;100.00;97380.92;107218;1273;25927;-80
2023/07/29 05:16:56;;;;;;;12.70;6.00;;;;;;;18.22;100.00;97384.85;106891;1273;22628;-80
2023/07/29 05:19:24;;;;;;;9.90;6.20;;;;;;;18.26;100.00;97385.77;106907;1273;24150;-81
2023/07/29 05:21:52;;;;;;;8.80;5.80;;;;;;;18.38;100.00;97386.30;107388;1273;23353;-80
2023/07/29 05:24:20;;;;;;;8.90;5.20;;;;;;;18.45;100.00;97378.02;107384;1260;22766;-80
2023/07/29 05:26:49;;;;;;;8.30;5.60;;;;;;;18.53;100.00;97379.55;107234;1273;22530;-79
2023/07/29 05:29:17;;;;;;;8.20;6.10;;;;;;;18.60;100.00;97376.88;107140;1273;22610;-81
2023/07/29 05:31:45;;;;;;;8.40;6.20;;;;;;;18.66;100.00;97380.95;107207;1273;22593;-80
2023/07/29 05:34:13;;;;;;;7.70;6.00;;;;;;;18.69;100.00;97385.83;107227;1273;22517;-80
2023/07/29 05:36:42;;;;;;;7.60;5.90;;;;;;;18.75;100.00;97387.81;107248;1273;22680;-80
2023/07/29 05:39:12;;;;;;;8.60;5.50;;;;;;;18.83;100.00;97393.27;107274;1273;22624;-80
2023/07/29 05:41:40;;;;;;;7.00;4.70;;;;;;;18.87;100.00;97391.62;107201;1273;22653;-80
2023/07/29 05:44:08;;;;;;;6.80;5.60;;;;;;;18.87;100.00;97396.98;107260;1273;22805;-80
2023/07/29 05:46:37;;;;;;;8.50;6.00;;;;;;;18.89;100.00;97397.42;107219;1273;23310;-80
2023/07/29 05:49:07;;;;;;;8.90;5.20;;;;;;;18.95;100.00;97399.61;107060;1273;22577;-79
2023/07/29 05:51:35;;;;;;;6.90;5.00;;;;;;;19.03;100.00;97399.29;106850;1273;22525;-79
2023/07/29 05:54:04;;;;;;;7.80;5.10;;;;;;;19.14;100.00;97397.11;106870;1273;22695;-79
2023/07/29 05:56:32;;;;;;;5.90;4.50;;;;;;;19.27;100.00;97397.23;107008;1256;22780;-79
2023/07/29 05:59:00;;;;;;;8.40;6.40;;;;;;;19.31;100.00;97398.14;107022;1273;22891;-79
2023/07/29 06:01:28;;;;;;;14.40;5.40;;;;;;;19.38;100.00;97403.55;107060;1273;22626;-79
2023/07/29 06:03:56;;;;;;;6.40;4.40;;;;;;;19.44;100.00;97407.93;106992;1273;25536;-79
2023/07/29 06:06:24;;;;;;;7.60;4.40;;;;;;;19.55;100.00;97410.50;106879;1273;23658;-79
2023/07/29 06:08:52;;;;;;;6.90;4.80;;;;;;;19.68;100.00;97408.11;107126;1273;22623;-79
2023/07/29 06:11:20;;;;;;;8.00;4.60;;;;;;;19.81;100.00;97404.30;106902;1273;23461;-79
2023/07/29 06:13:48;;;;;;;6.60;4.80;;;;;;;19.91;100.00;97404.83;106889;1273;22655;-79
2023/07/29 06:16:16;;;;;;;9.40;5.00;;;;;;;20.03;100.00;97407.39;107394;1273;22631;-80
2023/07/29 06:18:45;;;;;;;7.00;4.50;;;;;;;20.10;100.00;97408.33;107365;1273;25244;-80
2023/07/29 06:21:16;;;;;;;8.10;4.40;;;;;;;20.15;100.00;97414.64;106977;1273;25323;-79
2023/07/29 06:23:45;;;;;;;5.80;4.70;;;;;;;20.19;100.00;97407.72;106922;1273;25269;-79
2023/07/29 06:26:13;;;;;;;7.90;4.90;;;;;;;20.24;100.00;97407.55;106931;1273;24220;-80
2023/07/29 06:28:41;;;;;;;6.20;4.50;;;;;;;20.33;100.00;97406.94;107267;1273;22517;-80
2023/07/29 06:31:10;;;;;;;8.40;4.40;;;;;;;20.41;100.00;97408.84;107294;1273;22566;-80
2023/07/29 06:33:38;;;;;;;5.50;4.40;;;;;;;20.51;100.00;97403.69;107287;1273;22647;-79
2023/07/29 06:36:06;;;;;;;9.70;4.50;;;;;;;20.61;100.00;97402.70;107184;1273;22561;-79
2023/07/29 06:38:34;;;;;;;6.50;4.60;;;;;;;20.71;100.00;97410.48;107285;1273;22560;-79
2023/07/29 06:41:02;;;;;;;6.90;4.60;;;;;;;20.77;99.50;97414.44;106936;1273;23868;-79
2023/07/29 06:43:30;;;;;;;8.00;5.00;;;;;;;20.88;100.00;97419.77;107006;1273;25505;-79
2023/07/29 06:45:58;;;;;;;8.40;5.50;;;;;;;20.94;99.10;97420.69;107018;1273;22532;-79
2023/07/29 06:48:26;;;;;;;8.90;5.50;;;;;;;20.98;99.33;97419.70;106967;1273;22723;-79
2023/07/29 06:50:55;;;;;;;7.20;4.10;;;;;;;21.11;98.64;97423.33;106835;1273;22564;-79
2023/07/29 06:53:23;;;;;;;5.80;4.40;;;;;;;21.17;98.46;97422.75;107007;1273;22542;-79
2023/07/29 06:55:51;;;;;;;5.90;4.20;;;;;;;21.26;99.30;97419.68;107030;1273;25278;-80
2023/07/29 06:58:19;;;;;;;6.50;4.40;;;;;;;21.37;96.92;97423.92;106942;1273;22530;-79
2023/07/29 07:00:47;;;;;;;6.90;4.50;;;;;;;21.40;97.28;97423.65;107239;1273;22525;-79
2023/07/29 07:03:15;;;;;;;8.40;4.90;;;;;;;21.46;94.19;97426.11;106893;1273;23367;-79
2023/07/29 07:05:43;;;;;;;5.30;4.10;;;;;;;21.52;94.77;97423.88;106985;1273;22522;-79
2023/07/29 07:08:12;;;;;;;7.30;4.40;;;;;;;21.60;95.13;97421.89;107036;1273;25281;-79
2023/07/29 07:10:40;;;;;;;6.80;4.30;;;;;;;21.69;94.71;97421.93;107368;1273;25551;-78
2023/07/29 07:13:08;;;;;;;5.30;4.00;;;;;;;21.79;95.14;97420.73;107015;1273;22972;-79
2023/07/29 07:15:36;;;;;;;9.60;4.30;;;;;;;21.85;93.28;97426.64;106960;1273;22633;-79
2023/07/29 07:18:03;;;;;;;4.90;3.80;;;;;;;21.80;92.09;97426.06;106927;1273;22528;-79
2023/07/29 07:20:32;;;;;;;5.80;3.50;;;;;;;21.77;91.78;97423.77;106937;1273;22554;-80
2023/07/29 07:23:00;;;;;;;5.80;3.80;;;;;;;21.84;92.19;97426.55;106931;1273;25644;-79
2023/07/29 07:25:28;;;;;;;5.70;3.80;;;;;;;21.99;93.41;97424.20;106964;1273;25288;-79
2023/07/29 07:27:56;;;;;;;4.90;3.80;;;;;;;22.16;92.29;97421.52;107052;1273;24226;-79
2023/07/29 07:30:24;;;;;;;8.40;3.80;;;;;;;22.33;93.43;97425.13;106959;1273;24282;-79
2023/07/29 07:32:52;;;;;;;4.80;3.20;;;;;;;22.44;89.11;97421.55;106965;1273;22652;-79
2023/07/29 07:35:20;;;;;;;6.50;3.90;;;;;;;22.38;87.67;97419.65;107157;1273;24257;-79
2023/07/29 07:37:48;;;;;;;7.00;4.00;;;;;;;22.47;90.23;97417.48;107319;1273;22520;-80
2023/07/29 07:40:16;;;;;;;6.30;3.70;;;;;;;22.69;89.75;97418.23;106964;1273;25352;-79
2023/07/29 07:42:44;;;;;;;6.60;3.20;;;;;;;22.84;90.21;97418.40;107033;1273;23054;-79
2023/07/29 07:45:12;;;;;;;4.10;3.10;;;;;;;22.98;87.80;97421.48;106991;1273;22817;-79
2023/07/29 07:47:40;;;;;;;6.30;3.10;;;;;;;22.98;85.78;97419.60;106932;1273;25329;-79
2023/07/29 07:50:09;;;;;;;4.90;3.50;;;;;;;23.08;87.78;97417.33;106915;1273;22511;-79
2023/07/29 07:52:37;;;;;;;4.20;3.30;;;;;;;23.24;85.87;97418.97;106986;1273;22528;-79
2023/07/29 07:55:05;;;;;;;5.60;3.20;;;;;;;23.32;85.93;97420.54;107019;1273;25472;-79
2023/07/29 07:57:33;;;;;;;7.10;3.30;;;;;;;23.27;85.77;97417.64;107370;1273;23886;-79
2023/07/29 08:00:01;;;;;;;6.90;3.80;;;;;;;23.17;82.37;97416.85;107045;1273;25392;-79
2023/07/29 08:02:39;;;;;;;5.60;2.90;;;;;;;23.07;83.55;97416.15;107054;1256;24196;-79
2023/07/29 08:05:08;;;;;;;7.40;3.20;;;;;;;23.08;83.12;97418.35;107015;1273;23286;-79
2023/07/29 08:07:36;;;;;;;6.50;3.30;;;;;;;23.16;82.69;97417.25;106829;1272;23921;-78
2023/07/29 08:10:05;;;;;;;6.20;3.00;;;;;;;23.23;81.99;97415.98;107048;1273;22525;-79
2023/07/29 08:12:33;;;;;;;4.80;2.70;;;;;;;23.22;83.17;97417.56;107027;1273;23026;-78
2023/07/29 08:15:01;;;;;;;4.90;3.00;;;;;;;23.23;83.50;97415.60;107054;1273;24479;-79
2023/07/29 08:17:29;;;;;;;4.00;3.20;;;;;;;23.26;82.42;97413.46;107038;1273;24338;-78
2023/07/29 08:19:57;;;;;;;5.50;3.10;;;;;;;23.30;81.17;97413.63;107045;1273;22533;-78
2023/07/29 08:22:25;;;;;;;6.30;2.70;;;;;;;23.32;81.42;97412.36;107021;1273;24072;-79
2023/07/29 08:24:53;;;;;;;4.20;2.70;;;;;;;23.32;81.37;97412.84;107458;1273;25344;-79
2023/07/29 08:27:21;;;;;;;3.90;2.50;;;;;;;23.35;80.03;97414.25;107303;1273;25399;-79
2023/07/29 08:29:49;;;;;;;3.10;2.40;;;;;;;23.33;80.45;97411.42;107403;1273;25328;-79
2023/07/29 08:32:17;;;;;;;4.10;2.50;;;;;;;23.37;78.77;97409.38;107319;1273;22528;-79
2023/07/29 08:34:45;;;;;;;4.10;2.60;;;;;;;23.40;79.71;97406.52;107287;1273;25496;-78
2023/07/29 08:37:13;;;;;;;3.50;2.80;;;;;;;23.57;80.83;97405.64;106995;1273;24364;-78
2023/07/29 08:39:41;;;;;;;6.80;2.30;;;;;;;23.73;78.94;97402.86;106995;1273;24238;-78
2023/07/29 08:42:11;;;;;;;5.40;2.80;;;;;;;23.77;79.96;97405.38;107307;1273;24378;-79
2023/07/29 08:44:44;;;;;;;6.60;2.70;;;;;;;23.81;79.40;97402.45;107341;1273;24247;-79
2023/07/29 08:47:16;;;;;;;5.50;2.60;;;;;;;23.85;79.72;97401.27;107441;1273;25315;-79
2023/07/29 08:49:45;;;;;;;2.80;2.40;;;;;;;23.86;78.25;97403.55;107376;1273;25397;-79
2023/07/29 08:52:14;;;;;;;3.30;2.70;;;;;;;23.79;76.91;97400.18;107333;1273;22530;-79
2023/07/29 08:54:42;;;;;;;5.50;2.70;;;;;;;23.75;77.94;97397.84;107006;1273;22512;-79
2023/07/29 08:57:11;;;;;;;5.60;2.50;;;;;;;23.75;78.47;97396.11;107352;1273;23921;-79
2023/07/29 08:59:39;;;;;;;3.10;2.50;;;;;;;23.69;75.96;97393.75;107381;1256;24371;-78
2023/07/29 09:02:07;;;;;;;6.30;2.60;;;;;;;23.59;75.61;97394.63;107356;1273;25500;-78
2023/07/29 09:04:36;;;;;;;4.60;2.40;;;;;;;23.48;74.08;97392.55;107442;1273;25356;-78
2023/07/29 09:07:06;;;;;;;3.50;2.60;;;;;;;23.42;74.43;97390.75;107354;1273;23014;-78
2023/07/29 09:09:34;;;;;;;2.90;2.40;;;;;;;23.56;73.96;97387.96;107415;1273;23594;-78
2023/07/29 09:12:03;;;;;;;3.10;2.20;;;;;;;23.69;73.01;97385.02;107112;1273;24208;-81
2023/07/29 09:14:31;;;;;;;4.60;2.70;;;;;;;23.87;72.09;97381.21;107250;1273;22537;-79
2023/07/29 09:17:00;;;;;;;3.70;2.50;;;;;;;24.07;73.40;97378.52;107115;1273;22626;-78
2023/07/29 09:19:28;;;;;;;3.70;2.50;;;;;;;24.31;72.67;97376.03;107319;1273;22711;-78
2023/07/29 09:21:56;;;;;;;3.60;2.70;;;;;;;24.43;74.14;97370.23;107016;1273;23842;-78
2023/07/29 09:24:24;;;;;;;3.70;2.50;;;;;;;24.54;73.93;97368.61;107032;1273;22528;-78
2023/07/29 09:26:54;;;;;;;4.40;2.50;;;;;;;24.56;71.95;97370.10;106986;1273;24221;-78
2023/07/29 09:29:23;;;;;;;4.40;2.30;;;;;;;24.50;71.54;97369.81;107031;1273;22573;-78
2023/07/29 09:31:52;;;;;;;7.20;2.60;;;;;;;24.47;72.19;97365.81;107442;1273;22603;-79
2023/07/29 09:34:20;;;;;;;5.70;2.80;;;;;;;24.51;73.05;97363.83;107005;1273;22601;-79
2023/07/29 09:36:50;;;;;;;2.80;2.50;;;;;;;24.57;73.09;97366.69;107402;1273;23391;-78
2023/07/29 09:39:18;;;;;;;5.00;2.40;;;;;;;24.63;73.01;97365.31;106938;1273;24229;-78
2023/07/29 09:41:51;;;;;;;3.50;2.40;;;;;;;24.73;73.75;97362.40;106966;1273;25323;-78
2023/07/29 09:44:19;;;;;;;4.60;2.50;;;;;;;24.79;73.16;97365.20;107021;1273;22660;-78
2023/07/29 09:46:47;;;;;;;6.00;2.50;;;;;;;24.78;72.69;97362.30;106986;1273;22640;-78
2023/07/29 09:49:15;;;;;;;2.40;2.10;;;;;;;24.66;71.73;97362.45;106889;1273;23253;-78
2023/07/29 09:51:44;;;;;;;2.60;2.20;;;;;;;24.59;72.23;97362.66;106952;1273;24214;-78
2023/07/29 09:54:13;;;;;;;4.00;2.30;;;;;;;24.50;70.83;97358.48;106909;1273;24295;-78
2023/07/29 09:56:44;;;;;;;5.20;2.10;;;;;;;24.39;69.89;97356.25;107057;1273;24272;-78
2023/07/29 09:59:12;;;;;;;4.90;2.30;;;;;;;24.24;70.58;97357.12;107077;1257;23830;-78
2023/07/29 10:01:42;;;;;;;6.40;2.50;;;;;;;24.19;71.16;97357.25;106926;1273;25220;-78
2023/07/29 10:04:11;;;;;;;5.50;2.40;;;;;;;24.20;70.60;97358.32;106933;1257;23705;-78
2023/07/29 10:06:42;;;;;;;5.50;2.50;;;;;;;24.13;70.49;97355.77;106955;1273;22535;-77
2023/07/29 10:09:12;;;;;;;5.50;2.50;;;;;;;24.11;70.56;97358.54;107316;1273;22531;-78
2023/07/29 10:11:41;;;;;;;4.10;2.60;;;;;;;24.04;70.02;97357.31;107011;1273;22636;-79
2023/07/29 10:14:10;;;;;;;4.00;2.30;;;;;;;24.02;70.17;97356.46;107087;1262;24241;-79
2023/07/29 10:16:39;;;;;;;3.50;2.40;;;;;;;23.99;70.86;97356.23;107077;1273;22650;-77
2023/07/29 10:19:09;;;;;;;4.50;2.40;;;;;;;24.00;71.08;97355.61;106901;1273;22646;-78
2023/07/29 10:21:41;;;;;;;3.90;2.80;;;;;;;23.99;70.90;97357.58;107017;1273;22753;-77
2023/07/29 10:24:16;;;;;;;3.90;2.50;;;;;;;23.96;70.34;97358.37;106960;1273;22639;-77
2023/07/29 10:26:47;;;;;;;5.10;2.70;;;;;;;23.88;69.77;97356.83;106968;1273;25495;-79
2023/07/29 10:29:19;;;;;;;7.10;2.40;;;;;;;23.77;70.24;97359.64;107224;1273;22610;-78
2023/07/29 10:31:52;;;;;;;4.20;2.40;;;;;;;23.71;71.15;97358.32;106990;1273;22607;-78
2023/07/29 10:34:22;;;;;;;3.20;2.20;;;;;;;23.68;71.48;97361.30;106944;1273;22711;-78
2023/07/29 10:36:52;;;;;;;4.10;2.50;;;;;;;23.65;71.27;97365.16;107047;1273;22535;-77
2023/07/29 10:39:20;;;;;;;3.80;2.40;;;;;;;23.58;70.82;97369.34;107043;1273;23126;-78
2023/07/29 10:41:56;;;;;;;6.50;2.40;;;;;;;23.51;71.27;97368.65;107058;1273;23540;-78
2023/07/29 10:44:40;;;;;;;3.70;2.40;;;;;;;23.45;70.82;97365.21;107003;1273;22685;-77
2023/07/29 10:47:12;;;;;;;4.50;2.60;;;;;;;23.36;70.79;97361.62;106903;1273;22483;-78
2023/07/29 10:49:44;;;;;;;2.40;2.20;;;;;;;23.30;70.79;97365.63;107032;1273;24355;-78
2023/07/29 10:52:16;;;;;;;4.00;2.60;;;;;;;23.23;70.62;97370.98;107042;1273;25605;-78
2023/07/29 10:54:46;;;;;;;2.70;2.30;;;;;;;23.15;70.61;97371.63;107400;1273;24047;-77
2023/07/29 10:57:36;;;;;;;3.80;2.40;;;;;;;23.06;71.17;97369.91;107106;1273;22765;-78
2023/07/29 11:00:05;;;;;;;3.80;2.70;;;;;;;23.03;71.18;97371.95;107424;1273;24344;-78
2023/07/29 11:02:37;;;;;;;4.90;2.80;;;;;;;22.88;72.95;97373.74;107047;1273;22676;-80
2023/07/29 11:05:09;;;;;;;3.60;2.70;;;;;;;22.53;74.10;97372.14;107156;1273;22575;-80
2023/07/29 11:07:45;;;;;;;3.90;2.40;;;;;;;22.29;75.28;97363.80;107107;1273;22783;-82
2023/07/29 11:10:15;;;;;;;3.60;2.80;;;;;;;22.09;76.63;97358.47;107453;1273;23139;-80
2023/07/29 11:12:51;;;;;;;7.80;3.50;;;;;;;21.92;76.53;97359.90;107067;1273;22628;-79
2023/07/29 11:15:23;;;;;;;5.20;2.90;;;;;;;21.89;76.96;97360.75;106957;1273;24785;-81
2023/07/29 11:17:53;;;;;;;3.90;3.10;;;;;;;21.96;77.45;97362.34;107391;1273;25437;-79
2023/07/29 11:20:29;;;;;;;6.10;3.00;;;;;;;22.05;77.71;97358.61;107416;1273;25523;-78
2023/07/29 11:22:59;;;;;;;3.90;3.10;;;;;;;22.13;78.30;97355.89;107084;1273;23040;-78
2023/07/29 11:25:30;;;;;;;3.50;2.90;;;;;;;22.21;78.57;97353.04;107013;1273;22668;-79
2023/07/29 11:27:59;;;;;;;4.10;3.10;;;;;;;22.30;78.88;97354.23;107092;1273;22658;-79
2023/07/29 11:30:33;;;;;;;6.00;3.00;;;;;;;22.37;79.00;97352.75;107068;1273;25271;-79